sensor_id;sensor_type;location;lat;lon;timestamp;P1;durP1;ratioP1;P2;durP2;ratioP2
32319;SDS011;19080;51.750;5.888;2022-09-11T00:00:31;61.05;;;50.58;;
32319;SDS011;19080;51.750;5.888;2022-09-11T00:02:58;69.32;;;54.90;;
32319;SDS011;19080;51.750;5.888;2022-09-11T00:05:24;71.35;;;58.63;;
32319;SDS011;19080;51.750;5.888;2022-09-11T00:07:51;59.10;;;48.08;;
32319;SDS011;19080;51.750;5.888;2022-09-11T00:10:17;54.95;;;44.13;;
32319;SDS011;19080;51.750;5.888;2022-09-11T00:12:44;42.60;;;36.47;;
32319;SDS011;19080;51.750;5.888;2022-09-11T00:15:11;38.97;;;33.72;;
32319;SDS011;19080;51.750;5.888;2022-09-11T00:17:37;45.33;;;36.42;;
32319;SDS011;19080;51.750;5.888;2022-09-11T00:20:04;39.58;;;31.75;;
32319;SDS011;19080;51.750;5.888;2022-09-11T00:22:30;36.20;;;29.90;;
32319;SDS011;19080;51.750;5.888;2022-09-11T00:24:57;36.63;;;31.50;;
32319;SDS011;19080;51.750;5.888;2022-09-11T00:27:24;38.35;;;31.20;;
32319;SDS011;19080;51.750;5.888;2022-09-11T00:29:51;33.95;;;28.80;;
32319;SDS011;19080;51.750;5.888;2022-09-11T00:32:17;39.28;;;30.88;;
32319;SDS011;19080;51.750;5.888;2022-09-11T00:34:43;37.22;;;32.88;;
32319;SDS011;19080;51.750;5.888;2022-09-11T00:37:13;36.35;;;32.42;;
32319;SDS011;19080;51.750;5.888;2022-09-11T00:39:39;38.05;;;31.20;;
32319;SDS011;19080;51.750;5.888;2022-09-11T00:42:05;38.50;;;31.27;;
32319;SDS011;19080;51.750;5.888;2022-09-11T00:47:00;39.70;;;32.60;;
32319;SDS011;19080;51.750;5.888;2022-09-11T00:52:00;43.70;;;35.78;;
32319;SDS011;19080;51.750;5.888;2022-09-11T00:54:29;54.25;;;38.55;;
32319;SDS011;19080;51.750;5.888;2022-09-11T00:56:57;44.88;;;36.53;;
32319;SDS011;19080;51.750;5.888;2022-09-11T00:59:24;40.72;;;34.80;;
32319;SDS011;19080;51.750;5.888;2022-09-11T01:01:52;44.22;;;35.05;;
32319;SDS011;19080;51.750;5.888;2022-09-11T01:04:19;44.90;;;33.83;;
32319;SDS011;19080;51.750;5.888;2022-09-11T01:06:46;42.25;;;31.92;;
32319;SDS011;19080;51.750;5.888;2022-09-11T01:09:14;31.48;;;27.73;;
32319;SDS011;19080;51.750;5.888;2022-09-11T01:11:42;37.20;;;31.70;;
32319;SDS011;19080;51.750;5.888;2022-09-11T01:14:31;30.02;;;26.70;;
32319;SDS011;19080;51.750;5.888;2022-09-11T01:17:10;36.90;;;30.48;;
32319;SDS011;19080;51.750;5.888;2022-09-11T01:20:44;39.30;;;32.92;;
32319;SDS011;19080;51.750;5.888;2022-09-11T01:25:30;35.03;;;29.27;;
32319;SDS011;19080;51.750;5.888;2022-09-11T01:28:03;30.58;;;27.30;;
32319;SDS011;19080;51.750;5.888;2022-09-11T01:30:34;32.67;;;26.45;;
32319;SDS011;19080;51.750;5.888;2022-09-11T01:41:13;38.45;;;32.33;;
32319;SDS011;19080;51.750;5.888;2022-09-11T01:43:53;36.08;;;30.35;;
32319;SDS011;19080;51.750;5.888;2022-09-11T01:46:23;35.35;;;29.25;;
32319;SDS011;19080;51.750;5.888;2022-09-11T01:48:54;32.97;;;28.23;;
32319;SDS011;19080;51.750;5.888;2022-09-11T01:51:24;34.40;;;27.27;;
32319;SDS011;19080;51.750;5.888;2022-09-11T01:53:52;27.00;;;23.02;;
32319;SDS011;19080;51.750;5.888;2022-09-11T01:56:20;25.63;;;21.77;;
32319;SDS011;19080;51.750;5.888;2022-09-11T01:58:49;23.70;;;20.40;;
32319;SDS011;19080;51.750;5.888;2022-09-11T02:01:19;24.60;;;21.90;;
32319;SDS011;19080;51.750;5.888;2022-09-11T02:03:52;23.35;;;20.95;;
32319;SDS011;19080;51.750;5.888;2022-09-11T02:06:22;30.90;;;26.13;;
32319;SDS011;19080;51.750;5.888;2022-09-11T02:08:51;44.92;;;35.40;;
32319;SDS011;19080;51.750;5.888;2022-09-11T02:11:21;39.90;;;31.27;;
32319;SDS011;19080;51.750;5.888;2022-09-11T02:16:57;38.85;;;32.08;;
32319;SDS011;19080;51.750;5.888;2022-09-11T02:19:26;36.70;;;30.52;;
32319;SDS011;19080;51.750;5.888;2022-09-11T02:21:54;37.72;;;29.65;;
32319;SDS011;19080;51.750;5.888;2022-09-11T02:24:22;29.95;;;26.25;;
32319;SDS011;19080;51.750;5.888;2022-09-11T02:26:53;31.52;;;27.45;;
32319;SDS011;19080;51.750;5.888;2022-09-11T02:29:20;40.43;;;30.93;;
32319;SDS011;19080;51.750;5.888;2022-09-11T02:31:46;32.33;;;26.42;;
32319;SDS011;19080;51.750;5.888;2022-09-11T02:34:13;30.23;;;26.33;;
32319;SDS011;19080;51.750;5.888;2022-09-11T02:49:23;40.65;;;32.63;;
32319;SDS011;19080;51.750;5.888;2022-09-11T02:51:53;45.00;;;33.50;;
32319;SDS011;19080;51.750;5.888;2022-09-11T02:54:23;35.53;;;28.95;;
32319;SDS011;19080;51.750;5.888;2022-09-11T02:59:32;34.08;;;27.55;;
32319;SDS011;19080;51.750;5.888;2022-09-11T03:02:01;43.55;;;33.33;;
32319;SDS011;19080;51.750;5.888;2022-09-11T03:04:28;47.97;;;35.08;;
32319;SDS011;19080;51.750;5.888;2022-09-11T03:06:55;43.20;;;33.08;;
32319;SDS011;19080;51.750;5.888;2022-09-11T03:09:23;52.00;;;38.35;;
32319;SDS011;19080;51.750;5.888;2022-09-11T03:11:54;41.10;;;33.42;;
32319;SDS011;19080;51.750;5.888;2022-09-11T03:14:21;44.75;;;33.88;;
32319;SDS011;19080;51.750;5.888;2022-09-11T03:16:47;45.97;;;32.50;;
32319;SDS011;19080;51.750;5.888;2022-09-11T03:19:17;39.35;;;32.05;;
32319;SDS011;19080;51.750;5.888;2022-09-11T03:21:43;31.00;;;27.73;;
32319;SDS011;19080;51.750;5.888;2022-09-11T03:24:09;44.45;;;30.83;;
32319;SDS011;19080;51.750;5.888;2022-09-11T03:26:38;29.20;;;26.00;;
32319;SDS011;19080;51.750;5.888;2022-09-11T03:29:04;28.80;;;25.80;;
32319;SDS011;19080;51.750;5.888;2022-09-11T03:31:31;34.85;;;29.08;;
32319;SDS011;19080;51.750;5.888;2022-09-11T03:34:02;30.40;;;26.73;;
32319;SDS011;19080;51.750;5.888;2022-09-11T03:36:29;34.67;;;28.35;;
32319;SDS011;19080;51.750;5.888;2022-09-11T03:38:55;37.90;;;29.75;;
32319;SDS011;19080;51.750;5.888;2022-09-11T03:41:22;37.75;;;29.60;;
32319;SDS011;19080;51.750;5.888;2022-09-11T03:43:48;53.58;;;35.05;;
32319;SDS011;19080;51.750;5.888;2022-09-11T03:46:14;37.42;;;31.83;;
32319;SDS011;19080;51.750;5.888;2022-09-11T03:48:43;41.55;;;30.20;;
32319;SDS011;19080;51.750;5.888;2022-09-11T03:51:12;40.63;;;31.08;;
32319;SDS011;19080;51.750;5.888;2022-09-11T03:53:40;42.90;;;32.40;;
32319;SDS011;19080;51.750;5.888;2022-09-11T03:56:07;49.00;;;30.02;;
32319;SDS011;19080;51.750;5.888;2022-09-11T03:58:40;34.28;;;27.85;;
32319;SDS011;19080;51.750;5.888;2022-09-11T04:01:12;47.10;;;33.60;;
32319;SDS011;19080;51.750;5.888;2022-09-11T04:03:40;57.78;;;36.50;;
32319;SDS011;19080;51.750;5.888;2022-09-11T04:08:39;81.72;;;41.55;;
32319;SDS011;19080;51.750;5.888;2022-09-11T04:11:08;64.55;;;37.70;;
32319;SDS011;19080;51.750;5.888;2022-09-11T04:13:37;46.05;;;32.55;;
32319;SDS011;19080;51.750;5.888;2022-09-11T04:16:09;43.75;;;32.45;;
32319;SDS011;19080;51.750;5.888;2022-09-11T04:18:39;60.42;;;35.35;;
32319;SDS011;19080;51.750;5.888;2022-09-11T04:21:07;38.25;;;30.45;;
32319;SDS011;19080;51.750;5.888;2022-09-11T04:23:34;38.90;;;31.77;;
32319;SDS011;19080;51.750;5.888;2022-09-11T04:26:01;36.05;;;29.98;;
32319;SDS011;19080;51.750;5.888;2022-09-11T04:28:28;32.63;;;27.13;;
32319;SDS011;19080;51.750;5.888;2022-09-11T04:30:55;32.70;;;27.77;;
32319;SDS011;19080;51.750;5.888;2022-09-11T04:33:22;36.38;;;29.70;;
32319;SDS011;19080;51.750;5.888;2022-09-11T04:35:50;34.17;;;27.30;;
32319;SDS011;19080;51.750;5.888;2022-09-11T04:38:16;58.97;;;29.40;;
32319;SDS011;19080;51.750;5.888;2022-09-11T04:40:44;37.78;;;26.95;;
32319;SDS011;19080;51.750;5.888;2022-09-11T04:43:11;31.00;;;26.63;;
32319;SDS011;19080;51.750;5.888;2022-09-11T04:45:37;30.35;;;24.90;;
32319;SDS011;19080;51.750;5.888;2022-09-11T04:48:06;29.42;;;24.92;;
32319;SDS011;19080;51.750;5.888;2022-09-11T04:50:33;37.72;;;28.50;;
32319;SDS011;19080;51.750;5.888;2022-09-11T04:53:15;70.30;;;31.77;;
32319;SDS011;19080;51.750;5.888;2022-09-11T04:55:41;38.10;;;28.70;;
32319;SDS011;19080;51.750;5.888;2022-09-11T04:58:08;37.92;;;27.55;;
32319;SDS011;19080;51.750;5.888;2022-09-11T05:00:35;40.10;;;27.77;;
32319;SDS011;19080;51.750;5.888;2022-09-11T05:03:01;38.45;;;28.45;;
32319;SDS011;19080;51.750;5.888;2022-09-11T05:05:28;32.78;;;26.15;;
32319;SDS011;19080;51.750;5.888;2022-09-11T05:07:55;28.48;;;24.63;;
32319;SDS011;19080;51.750;5.888;2022-09-11T05:10:21;26.77;;;23.13;;
32319;SDS011;19080;51.750;5.888;2022-09-11T05:12:48;28.13;;;24.17;;
32319;SDS011;19080;51.750;5.888;2022-09-11T05:15:19;28.70;;;23.00;;
32319;SDS011;19080;51.750;5.888;2022-09-11T05:17:46;25.17;;;22.38;;
32319;SDS011;19080;51.750;5.888;2022-09-11T05:20:15;25.20;;;22.58;;
32319;SDS011;19080;51.750;5.888;2022-09-11T05:22:42;24.15;;;21.75;;
32319;SDS011;19080;51.750;5.888;2022-09-11T05:25:10;22.92;;;20.73;;
32319;SDS011;19080;51.750;5.888;2022-09-11T05:27:37;22.65;;;20.38;;
32319;SDS011;19080;51.750;5.888;2022-09-11T05:30:03;19.52;;;17.50;;
32319;SDS011;19080;51.750;5.888;2022-09-11T05:32:31;19.42;;;17.52;;
32319;SDS011;19080;51.750;5.888;2022-09-11T05:35:00;18.90;;;17.00;;
32319;SDS011;19080;51.750;5.888;2022-09-11T05:37:26;17.95;;;16.05;;
32319;SDS011;19080;51.750;5.888;2022-09-11T05:39:53;19.02;;;17.23;;
32319;SDS011;19080;51.750;5.888;2022-09-11T05:42:19;20.65;;;18.55;;
32319;SDS011;19080;51.750;5.888;2022-09-11T05:44:50;23.75;;;21.23;;
32319;SDS011;19080;51.750;5.888;2022-09-11T05:47:18;24.08;;;21.58;;
32319;SDS011;19080;51.750;5.888;2022-09-11T05:49:48;27.63;;;23.30;;
32319;SDS011;19080;51.750;5.888;2022-09-11T05:52:14;26.80;;;23.25;;
32319;SDS011;19080;51.750;5.888;2022-09-11T05:54:41;30.05;;;23.83;;
32319;SDS011;19080;51.750;5.888;2022-09-11T05:57:10;32.60;;;25.52;;
32319;SDS011;19080;51.750;5.888;2022-09-11T05:59:37;35.45;;;26.27;;
32319;SDS011;19080;51.750;5.888;2022-09-11T06:02:03;48.50;;;32.05;;
32319;SDS011;19080;51.750;5.888;2022-09-11T06:04:38;61.05;;;36.97;;
32319;SDS011;19080;51.750;5.888;2022-09-11T06:07:06;67.43;;;41.42;;
32319;SDS011;19080;51.750;5.888;2022-09-11T06:09:33;66.55;;;39.80;;
32319;SDS011;19080;51.750;5.888;2022-09-11T06:12:00;51.67;;;36.42;;
32319;SDS011;19080;51.750;5.888;2022-09-11T06:14:27;49.47;;;33.45;;
32319;SDS011;19080;51.750;5.888;2022-09-11T06:16:53;41.00;;;29.55;;
32319;SDS011;19080;51.750;5.888;2022-09-11T06:19:24;36.50;;;27.98;;
32319;SDS011;19080;51.750;5.888;2022-09-11T06:21:50;40.90;;;28.98;;
32319;SDS011;19080;51.750;5.888;2022-09-11T06:24:23;39.10;;;29.38;;
32319;SDS011;19080;51.750;5.888;2022-09-11T06:26:50;48.70;;;31.02;;
32319;SDS011;19080;51.750;5.888;2022-09-11T06:29:16;63.33;;;33.40;;
32319;SDS011;19080;51.750;5.888;2022-09-11T06:31:46;42.10;;;30.00;;
32319;SDS011;19080;51.750;5.888;2022-09-11T06:34:14;49.53;;;32.05;;
32319;SDS011;19080;51.750;5.888;2022-09-11T06:36:41;35.63;;;27.27;;
32319;SDS011;19080;51.750;5.888;2022-09-11T06:39:11;32.97;;;24.73;;
32319;SDS011;19080;51.750;5.888;2022-09-11T06:41:37;20.98;;;18.77;;
32319;SDS011;19080;51.750;5.888;2022-09-11T06:44:11;28.42;;;21.15;;
32319;SDS011;19080;51.750;5.888;2022-09-11T06:46:38;24.20;;;21.60;;
32319;SDS011;19080;51.750;5.888;2022-09-11T06:49:13;22.70;;;20.25;;
32319;SDS011;19080;51.750;5.888;2022-09-11T06:51:58;22.33;;;19.92;;
32319;SDS011;19080;51.750;5.888;2022-09-11T06:54:25;23.50;;;21.10;;
32319;SDS011;19080;51.750;5.888;2022-09-11T06:56:52;22.48;;;20.17;;
32319;SDS011;19080;51.750;5.888;2022-09-11T06:59:19;22.60;;;20.20;;
32319;SDS011;19080;51.750;5.888;2022-09-11T07:01:49;22.95;;;20.65;;
32319;SDS011;19080;51.750;5.888;2022-09-11T07:04:17;21.27;;;19.08;;
32319;SDS011;19080;51.750;5.888;2022-09-11T07:06:46;23.20;;;18.88;;
32319;SDS011;19080;51.750;5.888;2022-09-11T07:09:14;18.13;;;15.95;;
32319;SDS011;19080;51.750;5.888;2022-09-11T07:11:46;28.73;;;18.85;;
32319;SDS011;19080;51.750;5.888;2022-09-11T07:14:12;19.77;;;17.58;;
32319;SDS011;19080;51.750;5.888;2022-09-11T07:16:42;18.02;;;16.27;;
32319;SDS011;19080;51.750;5.888;2022-09-11T07:19:11;23.33;;;18.98;;
32319;SDS011;19080;51.750;5.888;2022-09-11T07:21:38;17.90;;;16.20;;
32319;SDS011;19080;51.750;5.888;2022-09-11T07:24:05;19.48;;;17.67;;
32319;SDS011;19080;51.750;5.888;2022-09-11T07:26:36;22.23;;;19.77;;
32319;SDS011;19080;51.750;5.888;2022-09-11T07:29:07;18.60;;;16.77;;
32319;SDS011;19080;51.750;5.888;2022-09-11T07:31:34;24.10;;;20.48;;
32319;SDS011;19080;51.750;5.888;2022-09-11T07:34:03;20.35;;;18.30;;
32319;SDS011;19080;51.750;5.888;2022-09-11T07:36:31;19.50;;;17.50;;
32319;SDS011;19080;51.750;5.888;2022-09-11T07:38:59;21.58;;;19.38;;
32319;SDS011;19080;51.750;5.888;2022-09-11T07:41:34;37.38;;;20.95;;
32319;SDS011;19080;51.750;5.888;2022-09-11T07:44:07;21.08;;;19.08;;
32319;SDS011;19080;51.750;5.888;2022-09-11T07:46:34;21.15;;;19.05;;
32319;SDS011;19080;51.750;5.888;2022-09-11T07:49:05;23.73;;;21.05;;
32319;SDS011;19080;51.750;5.888;2022-09-11T07:51:33;27.08;;;22.80;;
32319;SDS011;19080;51.750;5.888;2022-09-11T07:54:03;21.25;;;19.08;;
32319;SDS011;19080;51.750;5.888;2022-09-11T07:56:32;20.90;;;18.80;;
32319;SDS011;19080;51.750;5.888;2022-09-11T07:59:00;26.73;;;23.33;;
32319;SDS011;19080;51.750;5.888;2022-09-11T08:01:28;27.20;;;24.02;;
32319;SDS011;19080;51.750;5.888;2022-09-11T08:03:56;25.88;;;23.05;;
32319;SDS011;19080;51.750;5.888;2022-09-11T08:06:25;26.95;;;23.42;;
32319;SDS011;19080;51.750;5.888;2022-09-11T08:08:53;30.88;;;26.27;;
32319;SDS011;19080;51.750;5.888;2022-09-11T08:11:21;29.52;;;25.23;;
32319;SDS011;19080;51.750;5.888;2022-09-11T08:13:51;32.50;;;27.92;;
32319;SDS011;19080;51.750;5.888;2022-09-11T08:16:21;32.40;;;27.70;;
32319;SDS011;19080;51.750;5.888;2022-09-11T08:18:50;30.52;;;25.90;;
32319;SDS011;19080;51.750;5.888;2022-09-11T08:21:20;31.88;;;27.20;;
32319;SDS011;19080;51.750;5.888;2022-09-11T08:23:47;28.27;;;25.15;;
32319;SDS011;19080;51.750;5.888;2022-09-11T08:26:16;36.85;;;30.27;;
32319;SDS011;19080;51.750;5.888;2022-09-11T08:28:44;32.40;;;28.88;;
32319;SDS011;19080;51.750;5.888;2022-09-11T08:31:11;36.13;;;31.08;;
32319;SDS011;19080;51.750;5.888;2022-09-11T08:33:38;32.15;;;26.63;;
32319;SDS011;19080;51.750;5.888;2022-09-11T08:36:07;29.63;;;26.48;;
32319;SDS011;19080;51.750;5.888;2022-09-11T08:38:36;36.20;;;29.77;;
32319;SDS011;19080;51.750;5.888;2022-09-11T08:43:51;34.45;;;28.30;;
32319;SDS011;19080;51.750;5.888;2022-09-11T08:46:20;29.98;;;26.00;;
32319;SDS011;19080;51.750;5.888;2022-09-11T08:48:55;29.85;;;26.65;;
32319;SDS011;19080;51.750;5.888;2022-09-11T08:51:23;29.40;;;25.60;;
32319;SDS011;19080;51.750;5.888;2022-09-11T08:53:52;25.65;;;22.95;;
32319;SDS011;19080;51.750;5.888;2022-09-11T08:56:20;25.83;;;22.95;;
32319;SDS011;19080;51.750;5.888;2022-09-11T08:59:14;28.48;;;25.55;;
32319;SDS011;19080;51.750;5.888;2022-09-11T09:01:40;26.45;;;23.75;;
32319;SDS011;19080;51.750;5.888;2022-09-11T09:09:57;35.20;;;27.63;;
32319;SDS011;19080;51.750;5.888;2022-09-11T09:12:39;31.42;;;28.13;;
32319;SDS011;19080;51.750;5.888;2022-09-11T09:15:14;29.25;;;25.63;;
32319;SDS011;19080;51.750;5.888;2022-09-11T09:17:44;32.08;;;28.67;;
32319;SDS011;19080;51.750;5.888;2022-09-11T09:20:12;29.52;;;26.52;;
32319;SDS011;19080;51.750;5.888;2022-09-11T09:22:47;30.40;;;27.08;;
32319;SDS011;19080;51.750;5.888;2022-09-11T09:25:18;27.45;;;24.60;;
32319;SDS011;19080;51.750;5.888;2022-09-11T09:27:47;31.52;;;27.90;;
32319;SDS011;19080;51.750;5.888;2022-09-11T09:30:18;29.27;;;25.98;;
32319;SDS011;19080;51.750;5.888;2022-09-11T09:33:32;26.48;;;23.75;;
32319;SDS011;19080;51.750;5.888;2022-09-11T09:35:41;27.88;;;24.98;;
32319;SDS011;19080;51.750;5.888;2022-09-11T09:38:13;29.48;;;26.42;;
32319;SDS011;19080;51.750;5.888;2022-09-11T09:40:41;28.08;;;25.10;;
32319;SDS011;19080;51.750;5.888;2022-09-11T09:43:16;28.60;;;25.58;;
32319;SDS011;19080;51.750;5.888;2022-09-11T09:48:17;26.02;;;23.10;;
32319;SDS011;19080;51.750;5.888;2022-09-11T09:50:43;25.00;;;22.55;;
32319;SDS011;19080;51.750;5.888;2022-09-11T09:53:12;24.60;;;22.10;;
32319;SDS011;19080;51.750;5.888;2022-09-11T09:55:40;25.52;;;22.90;;
32319;SDS011;19080;51.750;5.888;2022-09-11T09:58:07;24.92;;;22.40;;
32319;SDS011;19080;51.750;5.888;2022-09-11T10:00:35;22.13;;;19.75;;
32319;SDS011;19080;51.750;5.888;2022-09-11T10:03:21;22.25;;;19.83;;
32319;SDS011;19080;51.750;5.888;2022-09-11T10:05:48;25.50;;;23.05;;
32319;SDS011;19080;51.750;5.888;2022-09-11T10:08:34;25.98;;;23.17;;
32319;SDS011;19080;51.750;5.888;2022-09-11T10:11:02;28.38;;;24.33;;
32319;SDS011;19080;51.750;5.888;2022-09-11T10:13:30;26.60;;;23.90;;
32319;SDS011;19080;51.750;5.888;2022-09-11T10:15:58;25.98;;;23.27;;
32319;SDS011;19080;51.750;5.888;2022-09-11T10:20:51;23.45;;;21.05;;
32319;SDS011;19080;51.750;5.888;2022-09-11T10:23:21;24.83;;;22.10;;
32319;SDS011;19080;51.750;5.888;2022-09-11T10:25:48;26.73;;;23.98;;
32319;SDS011;19080;51.750;5.888;2022-09-11T10:28:15;24.85;;;22.25;;
32319;SDS011;19080;51.750;5.888;2022-09-11T10:33:24;23.25;;;20.95;;
32319;SDS011;19080;51.750;5.888;2022-09-11T10:35:53;24.92;;;22.40;;
32319;SDS011;19080;51.750;5.888;2022-09-11T10:38:33;25.90;;;16.63;;
32319;SDS011;19080;51.750;5.888;2022-09-11T10:41:08;22.58;;;20.30;;
32319;SDS011;19080;51.750;5.888;2022-09-11T10:43:38;21.38;;;19.20;;
32319;SDS011;19080;51.750;5.888;2022-09-11T10:48:54;23.80;;;21.30;;
32319;SDS011;19080;51.750;5.888;2022-09-11T10:51:22;23.38;;;21.02;;
32319;SDS011;19080;51.750;5.888;2022-09-11T10:56:34;21.95;;;19.45;;
32319;SDS011;19080;51.750;5.888;2022-09-11T10:59:05;18.85;;;16.95;;
32319;SDS011;19080;51.750;5.888;2022-09-11T11:01:35;22.65;;;20.25;;
32319;SDS011;19080;51.750;5.888;2022-09-11T11:04:01;18.05;;;16.35;;
32319;SDS011;19080;51.750;5.888;2022-09-11T11:09:04;29.20;;;18.17;;
32319;SDS011;19080;51.750;5.888;2022-09-11T11:21:53;16.70;;;15.13;;
32319;SDS011;19080;51.750;5.888;2022-09-11T11:29:47;21.15;;;18.92;;
32319;SDS011;19080;51.750;5.888;2022-09-11T11:37:22;24.20;;;21.80;;
32319;SDS011;19080;51.750;5.888;2022-09-11T11:44:52;23.60;;;21.45;;
32319;SDS011;19080;51.750;5.888;2022-09-11T11:49:48;24.15;;;21.65;;
32319;SDS011;19080;51.750;5.888;2022-09-11T11:57:22;17.63;;;15.20;;
32319;SDS011;19080;51.750;5.888;2022-09-11T12:00:10;13.93;;;12.57;;
32319;SDS011;19080;51.750;5.888;2022-09-11T12:02:40;15.35;;;13.77;;
32319;SDS011;19080;51.750;5.888;2022-09-11T12:05:09;13.35;;;11.95;;
32319;SDS011;19080;51.750;5.888;2022-09-11T12:07:37;12.10;;;10.90;;
32319;SDS011;19080;51.750;5.888;2022-09-11T12:10:04;14.32;;;12.60;;
32319;SDS011;19080;51.750;5.888;2022-09-11T12:12:34;13.38;;;12.18;;
32319;SDS011;19080;51.750;5.888;2022-09-11T12:15:16;13.82;;;12.48;;
32319;SDS011;19080;51.750;5.888;2022-09-11T12:17:43;10.02;;;9.13;;
32319;SDS011;19080;51.750;5.888;2022-09-11T12:22:38;9.88;;;8.98;;
32319;SDS011;19080;51.750;5.888;2022-09-11T12:32:49;13.70;;;11.93;;
32319;SDS011;19080;51.750;5.888;2022-09-11T12:35:17;8.82;;;7.80;;
32319;SDS011;19080;51.750;5.888;2022-09-11T12:37:47;10.82;;;9.68;;
32319;SDS011;19080;51.750;5.888;2022-09-11T12:40:33;11.38;;;10.18;;
32319;SDS011;19080;51.750;5.888;2022-09-11T12:45:49;9.57;;;8.52;;
32319;SDS011;19080;51.750;5.888;2022-09-11T12:48:18;7.43;;;6.78;;
32319;SDS011;19080;51.750;5.888;2022-09-11T12:51:03;8.32;;;7.50;;
32319;SDS011;19080;51.750;5.888;2022-09-11T12:53:31;9.05;;;8.07;;
32319;SDS011;19080;51.750;5.888;2022-09-11T12:55:59;9.15;;;8.07;;
32319;SDS011;19080;51.750;5.888;2022-09-11T13:06:18;8.07;;;7.25;;
32319;SDS011;19080;51.750;5.888;2022-09-11T13:08:46;8.10;;;6.88;;
32319;SDS011;19080;51.750;5.888;2022-09-11T13:14:01;9.82;;;8.82;;
32319;SDS011;19080;51.750;5.888;2022-09-11T13:16:30;9.60;;;8.70;;
32319;SDS011;19080;51.750;5.888;2022-09-11T13:21:35;9.23;;;8.32;;
32319;SDS011;19080;51.750;5.888;2022-09-11T13:24:01;9.18;;;7.32;;
32319;SDS011;19080;51.750;5.888;2022-09-11T13:26:28;10.80;;;9.02;;
32319;SDS011;19080;51.750;5.888;2022-09-11T13:28:58;9.32;;;8.15;;
32319;SDS011;19080;51.750;5.888;2022-09-11T13:31:32;8.30;;;6.85;;
32319;SDS011;19080;51.750;5.888;2022-09-11T13:34:00;7.47;;;6.40;;
32319;SDS011;19080;51.750;5.888;2022-09-11T13:36:28;7.68;;;6.63;;
32319;SDS011;19080;51.750;5.888;2022-09-11T13:38:57;8.93;;;6.75;;
32319;SDS011;19080;51.750;5.888;2022-09-11T13:41:26;7.15;;;6.55;;
32319;SDS011;19080;51.750;5.888;2022-09-11T13:43:57;6.80;;;6.20;;
32319;SDS011;19080;51.750;5.888;2022-09-11T13:46:25;7.45;;;6.72;;
32319;SDS011;19080;51.750;5.888;2022-09-11T13:48:54;6.47;;;5.85;;
32319;SDS011;19080;51.750;5.888;2022-09-11T13:51:26;6.80;;;6.10;;
32319;SDS011;19080;51.750;5.888;2022-09-11T13:53:56;6.32;;;5.10;;
32319;SDS011;19080;51.750;5.888;2022-09-11T13:56:37;3.92;;;3.60;;
32319;SDS011;19080;51.750;5.888;2022-09-11T14:01:51;8.90;;;5.60;;
32319;SDS011;19080;51.750;5.888;2022-09-11T14:04:19;8.93;;;4.90;;
32319;SDS011;19080;51.750;5.888;2022-09-11T14:06:46;5.63;;;4.90;;
32319;SDS011;19080;51.750;5.888;2022-09-11T14:09:17;5.72;;;5.00;;
32319;SDS011;19080;51.750;5.888;2022-09-11T14:11:44;5.87;;;4.93;;
32319;SDS011;19080;51.750;5.888;2022-09-11T14:14:12;5.45;;;4.10;;
32319;SDS011;19080;51.750;5.888;2022-09-11T14:16:47;6.13;;;5.15;;
32319;SDS011;19080;51.750;5.888;2022-09-11T14:19:18;5.35;;;4.57;;
32319;SDS011;19080;51.750;5.888;2022-09-11T14:21:47;4.25;;;3.00;;
32319;SDS011;19080;51.750;5.888;2022-09-11T14:24:48;5.20;;;3.08;;
32319;SDS011;19080;51.750;5.888;2022-09-11T14:29:53;4.30;;;3.72;;
32319;SDS011;19080;51.750;5.888;2022-09-11T14:32:28;4.82;;;3.60;;
32319;SDS011;19080;51.750;5.888;2022-09-11T14:34:56;7.85;;;5.22;;
32319;SDS011;19080;51.750;5.888;2022-09-11T14:37:23;4.78;;;3.40;;
32319;SDS011;19080;51.750;5.888;2022-09-11T14:39:56;6.70;;;4.90;;
32319;SDS011;19080;51.750;5.888;2022-09-11T14:42:28;3.60;;;3.30;;
32319;SDS011;19080;51.750;5.888;2022-09-11T14:44:54;7.38;;;5.85;;
32319;SDS011;19080;51.750;5.888;2022-09-11T14:47:22;8.05;;;4.53;;
32319;SDS011;19080;51.750;5.888;2022-09-11T14:49:50;5.65;;;4.22;;
32319;SDS011;19080;51.750;5.888;2022-09-11T14:52:17;8.68;;;5.72;;
32319;SDS011;19080;51.750;5.888;2022-09-11T14:54:44;7.35;;;4.30;;
32319;SDS011;19080;51.750;5.888;2022-09-11T14:57:12;4.93;;;4.50;;
32319;SDS011;19080;51.750;5.888;2022-09-11T14:59:46;7.20;;;3.97;;
32319;SDS011;19080;51.750;5.888;2022-09-11T15:02:22;4.65;;;3.15;;
32319;SDS011;19080;51.750;5.888;2022-09-11T15:04:50;5.55;;;3.22;;
32319;SDS011;19080;51.750;5.888;2022-09-11T15:07:17;4.18;;;3.88;;
32319;SDS011;19080;51.750;5.888;2022-09-11T15:09:44;3.30;;;2.30;;
32319;SDS011;19080;51.750;5.888;2022-09-11T15:12:12;6.50;;;4.03;;
32319;SDS011;19080;51.750;5.888;2022-09-11T15:14:39;4.65;;;4.20;;
32319;SDS011;19080;51.750;5.888;2022-09-11T15:17:24;4.28;;;3.80;;
32319;SDS011;19080;51.750;5.888;2022-09-11T15:19:50;5.38;;;4.85;;
32319;SDS011;19080;51.750;5.888;2022-09-11T15:22:17;3.55;;;2.78;;
32319;SDS011;19080;51.750;5.888;2022-09-11T15:24:44;7.05;;;4.05;;
32319;SDS011;19080;51.750;5.888;2022-09-11T15:27:10;4.85;;;4.18;;
32319;SDS011;19080;51.750;5.888;2022-09-11T15:29:37;5.20;;;4.70;;
32319;SDS011;19080;51.750;5.888;2022-09-11T15:32:05;4.22;;;3.25;;
32319;SDS011;19080;51.750;5.888;2022-09-11T15:34:32;4.43;;;3.50;;
32319;SDS011;19080;51.750;5.888;2022-09-11T15:36:59;4.78;;;4.28;;
32319;SDS011;19080;51.750;5.888;2022-09-11T15:39:26;5.65;;;4.00;;
32319;SDS011;19080;51.750;5.888;2022-09-11T15:41:53;5.13;;;4.63;;
32319;SDS011;19080;51.750;5.888;2022-09-11T15:44:21;5.95;;;3.50;;
32319;SDS011;19080;51.750;5.888;2022-09-11T15:46:49;4.45;;;3.58;;
32319;SDS011;19080;51.750;5.888;2022-09-11T15:49:16;5.88;;;4.43;;
32319;SDS011;19080;51.750;5.888;2022-09-11T15:51:42;4.88;;;3.20;;
32319;SDS011;19080;51.750;5.888;2022-09-11T15:54:10;5.70;;;3.10;;
32319;SDS011;19080;51.750;5.888;2022-09-11T15:56:36;4.43;;;3.17;;
32319;SDS011;19080;51.750;5.888;2022-09-11T15:59:03;4.80;;;3.25;;
32319;SDS011;19080;51.750;5.888;2022-09-11T16:01:30;4.95;;;3.22;;
32319;SDS011;19080;51.750;5.888;2022-09-11T16:03:59;4.38;;;2.88;;
32319;SDS011;19080;51.750;5.888;2022-09-11T16:06:26;3.42;;;2.83;;
32319;SDS011;19080;51.750;5.888;2022-09-11T16:08:56;4.30;;;3.00;;
32319;SDS011;19080;51.750;5.888;2022-09-11T16:11:23;4.82;;;4.03;;
32319;SDS011;19080;51.750;5.888;2022-09-11T16:13:50;6.30;;;3.58;;
32319;SDS011;19080;51.750;5.888;2022-09-11T16:16:17;8.25;;;4.22;;
32319;SDS011;19080;51.750;5.888;2022-09-11T16:18:44;3.13;;;2.33;;
32319;SDS011;19080;51.750;5.888;2022-09-11T16:21:12;4.85;;;2.83;;
32319;SDS011;19080;51.750;5.888;2022-09-11T16:23:38;2.78;;;2.58;;
32319;SDS011;19080;51.750;5.888;2022-09-11T16:26:07;2.97;;;2.60;;
32319;SDS011;19080;51.750;5.888;2022-09-11T16:28:33;2.90;;;1.90;;
32319;SDS011;19080;51.750;5.888;2022-09-11T16:31:00;3.15;;;2.42;;
32319;SDS011;19080;51.750;5.888;2022-09-11T16:33:31;3.83;;;2.97;;
32319;SDS011;19080;51.750;5.888;2022-09-11T16:36:08;3.55;;;2.92;;
32319;SDS011;19080;51.750;5.888;2022-09-11T16:38:42;4.10;;;2.60;;
32319;SDS011;19080;51.750;5.888;2022-09-11T16:41:10;3.40;;;2.67;;
32319;SDS011;19080;51.750;5.888;2022-09-11T16:43:38;3.97;;;3.17;;
32319;SDS011;19080;51.750;5.888;2022-09-11T16:46:06;2.67;;;2.47;;